createdAt,value
2022-11-23T00:01:44.597Z,7.68
2022-11-23T00:04:13.810Z,5.57
2022-11-23T00:06:41.170Z,8.05
2022-11-23T00:09:09.769Z,7.22
2022-11-23T00:11:36.671Z,9.25
2022-11-23T00:14:04.166Z,5.82
2022-11-23T00:16:31.577Z,8.70
2022-11-23T00:19:01.018Z,8.68
2022-11-23T00:21:30.157Z,6.22
2022-11-23T00:23:57.348Z,10.60
2022-11-23T00:26:25.413Z,8.55
2022-11-23T00:28:52.320Z,7.13
2022-11-23T00:31:20.547Z,5.07
2022-11-23T00:34:07.974Z,9.90
2022-11-23T00:36:34.856Z,13.38
2022-11-23T00:39:01.740Z,6.88
2022-11-23T00:41:28.900Z,6.53
2022-11-23T00:43:57.315Z,16.30
2022-11-23T00:46:25.941Z,8.35
2022-11-23T00:48:56.348Z,5.53
2022-11-23T00:51:27.411Z,8.57
2022-11-23T00:53:54.316Z,5.97
2022-11-23T00:56:21.953Z,5.60
2022-11-23T00:58:50.596Z,13.07
2022-11-23T01:01:18.830Z,4.60
2022-11-23T01:03:49.063Z,6.57
2022-11-23T01:06:19.145Z,7.22
2022-11-23T01:08:52.354Z,7.80
2022-11-23T01:11:21.753Z,7.22
2022-11-23T01:13:52.042Z,6.25
2022-11-23T01:16:24.156Z,8.07
2022-11-23T01:18:55.806Z,4.15
2022-11-23T01:21:23.395Z,8.07
2022-11-23T01:23:50.903Z,10.98
2022-11-23T01:26:18.042Z,5.93
2022-11-23T01:28:47.680Z,9.70
2022-11-23T01:31:19.746Z,3.55
2022-11-23T01:33:53.772Z,6.32
2022-11-23T01:36:22.800Z,9.63
2022-11-23T01:38:49.972Z,7.10
2022-11-23T01:41:25.776Z,8.70
2022-11-23T01:43:58.574Z,7.88
2022-11-23T01:46:25.558Z,5.63
2022-11-23T01:49:06.559Z,8.82
2022-11-23T01:51:40.779Z,10.43
2022-11-23T01:54:16.674Z,10.15
2022-11-23T01:56:47.669Z,7.30
2022-11-23T01:59:17.665Z,11.10
2022-11-23T02:01:45.194Z,7.47
2022-11-23T02:04:31.832Z,8.88
2022-11-23T02:07:01.539Z,7.32
2022-11-23T02:09:31.806Z,15.50
2022-11-23T02:12:03.204Z,12.18
2022-11-23T02:14:30.729Z,16.58
2022-11-23T02:17:02.913Z,12.38
2022-11-23T02:19:59.581Z,11.03
2022-11-23T02:22:35.388Z,10.10
2022-11-23T02:25:04.719Z,7.57
2022-11-23T02:27:31.704Z,9.65
2022-11-23T02:29:59.425Z,12.43
2022-11-23T02:32:26.566Z,10.23
2022-11-23T02:34:53.446Z,11.30
2022-11-23T02:37:20.353Z,9.73
2022-11-23T02:39:50.529Z,4.90
2022-11-23T02:42:17.928Z,6.75
2022-11-23T02:45:12.077Z,8.32
2022-11-23T02:47:40.862Z,6.55
2022-11-23T02:50:08.090Z,7.20
2022-11-23T02:52:34.916Z,10.32
2022-11-23T02:55:01.922Z,6.18
2022-11-23T02:57:32.490Z,9.68
2022-11-23T03:00:05.088Z,8.15
2022-11-23T03:02:32.319Z,7.90
2022-11-23T03:07:39.871Z,6.40
2022-11-23T03:10:08.643Z,8.48
2022-11-23T03:12:35.424Z,6.68
2022-11-23T03:15:02.319Z,9.00
2022-11-23T03:17:29.159Z,14.13
2022-11-23T03:19:56.032Z,11.05
2022-11-23T03:22:22.866Z,3.72
2022-11-23T03:24:49.737Z,5.18
2022-11-23T03:27:16.732Z,5.22
2022-11-23T03:29:43.677Z,5.93
2022-11-23T03:32:10.523Z,8.65
2022-11-23T03:34:37.369Z,8.52
2022-11-23T03:37:04.276Z,11.00
2022-11-23T03:39:31.382Z,13.38
2022-11-23T03:41:58.534Z,10.05
2022-11-23T03:44:25.365Z,9.73
2022-11-23T03:46:52.341Z,8.77
2022-11-23T03:49:19.196Z,9.43
2022-11-23T03:51:46.084Z,5.05
2022-11-23T03:54:12.988Z,6.50
2022-11-23T03:56:39.884Z,6.65
2022-11-23T03:59:06.712Z,13.65
2022-11-23T04:01:33.641Z,6.00
2022-11-23T04:04:00.511Z,4.38
2022-11-23T04:06:27.394Z,7.28
2022-11-23T04:08:57.517Z,6.70
2022-11-23T04:11:28.516Z,8.50
2022-11-23T04:13:55.387Z,6.65
2022-11-23T04:16:22.245Z,10.35
2022-11-23T04:18:49.229Z,11.65
2022-11-23T04:21:16.107Z,5.82
2022-11-23T04:23:42.933Z,6.82
2022-11-23T04:26:12.513Z,7.60
2022-11-23T04:28:39.332Z,5.57
2022-11-23T04:31:06.172Z,7.85
2022-11-23T04:33:32.955Z,7.93
2022-11-23T04:36:02.173Z,13.30
2022-11-23T04:38:29.505Z,3.72
2022-11-23T04:40:56.420Z,9.48
2022-11-23T04:43:23.325Z,6.95
2022-11-23T04:45:50.205Z,9.88
2022-11-23T04:48:17.007Z,4.95
2022-11-23T04:50:46.732Z,16.85
2022-11-23T04:53:13.981Z,7.40
2022-11-23T04:55:40.941Z,5.97
2022-11-23T04:58:07.750Z,5.65
2022-11-23T05:00:35.607Z,13.93
2022-11-23T05:03:02.604Z,11.80
2022-11-23T05:05:29.734Z,6.10
2022-11-23T05:07:57.594Z,10.50
2022-11-23T05:10:24.523Z,9.73
2022-11-23T05:12:51.402Z,5.65
2022-11-23T05:15:18.264Z,9.07
2022-11-23T05:17:45.070Z,9.80
2022-11-23T05:20:12.511Z,6.95
2022-11-23T05:22:39.502Z,11.68
2022-11-23T05:25:06.953Z,11.00
2022-11-23T05:27:33.941Z,8.40
2022-11-23T05:30:00.916Z,7.72
2022-11-23T05:32:28.004Z,7.18
2022-11-23T05:34:54.791Z,11.38
2022-11-23T05:37:21.641Z,16.40
2022-11-23T05:39:48.522Z,10.95
2022-11-23T05:42:15.342Z,8.02
2022-11-23T05:44:42.230Z,10.07
2022-11-23T05:47:09.104Z,7.65
2022-11-23T05:49:35.897Z,12.93
2022-11-23T05:52:02.754Z,9.40
2022-11-23T05:54:29.614Z,8.68
2022-11-23T05:56:56.806Z,4.50
2022-11-23T05:59:23.670Z,11.10
2022-11-23T06:01:50.612Z,8.82
2022-11-23T06:04:17.513Z,7.65
2022-11-23T06:06:44.532Z,9.23
2022-11-23T06:09:11.356Z,10.70
2022-11-23T06:11:38.291Z,13.13
2022-11-23T06:14:06.867Z,11.35
2022-11-23T06:16:38.638Z,10.80
2022-11-23T06:19:05.662Z,9.18
2022-11-23T06:21:32.632Z,7.20
2022-11-23T06:23:59.414Z,6.68
2022-11-23T06:26:27.047Z,7.90
2022-11-23T06:28:53.915Z,7.60
2022-11-23T06:31:20.796Z,5.20
2022-11-23T06:33:47.756Z,4.45
2022-11-23T06:36:15.741Z,8.43
2022-11-23T06:38:42.694Z,5.15
2022-11-23T06:41:09.575Z,7.60
2022-11-23T06:43:36.392Z,6.65
2022-11-23T06:46:06.925Z,4.53
2022-11-23T06:48:34.297Z,5.35
2022-11-23T06:51:01.681Z,10.60
2022-11-23T06:53:29.325Z,6.70
2022-11-23T06:56:00.443Z,9.50
2022-11-23T06:58:27.617Z,9.40
2022-11-23T07:00:54.797Z,5.72
2022-11-23T07:03:24.249Z,12.35
2022-11-23T07:05:51.388Z,6.82
2022-11-23T07:08:18.318Z,8.43
2022-11-23T07:10:45.667Z,5.32
2022-11-23T07:13:13.118Z,11.95
2022-11-23T07:15:40.453Z,7.47
2022-11-23T07:18:07.975Z,9.10
2022-11-23T07:20:35.315Z,7.38
2022-11-23T07:23:06.888Z,6.38
2022-11-23T07:25:35.991Z,5.55
2022-11-23T07:28:03.904Z,9.80
2022-11-23T07:30:32.038Z,7.32
2022-11-23T07:33:03.659Z,7.30
2022-11-23T07:35:32.020Z,6.50
2022-11-23T07:37:59.553Z,9.10
2022-11-23T07:40:27.240Z,7.53
2022-11-23T07:42:59.197Z,9.05
2022-11-23T07:45:26.073Z,9.13
2022-11-23T07:48:12.096Z,6.80
2022-11-23T07:50:40.165Z,8.05
2022-11-23T07:53:07.706Z,9.48
2022-11-23T07:55:34.860Z,11.10
2022-11-23T07:58:01.934Z,9.68
2022-11-23T08:00:29.879Z,5.80
2022-11-23T08:03:26.031Z,13.90
2022-11-23T08:05:46.129Z,9.13
2022-11-23T08:08:13.069Z,10.45
2022-11-23T08:10:44.429Z,8.90
2022-11-23T08:13:14.541Z,11.85
2022-11-23T08:15:41.532Z,9.88
2022-11-23T08:18:09.477Z,10.65
2022-11-23T08:20:36.365Z,7.28
2022-11-23T08:23:03.234Z,11.75
2022-11-23T08:25:30.403Z,9.07
2022-11-23T08:28:04.947Z,11.77
2022-11-23T08:30:33.199Z,6.07
2022-11-23T08:33:03.524Z,4.93
2022-11-23T08:35:30.505Z,9.70
2022-11-23T08:37:57.375Z,6.78
2022-11-23T08:40:25.848Z,11.27
2022-11-23T08:42:52.898Z,10.88
2022-11-23T08:45:19.755Z,15.63
2022-11-23T08:47:46.552Z,9.65
2022-11-23T08:50:14.142Z,11.88
2022-11-23T08:52:41.052Z,8.63
2022-11-23T08:55:08.267Z,6.18
2022-11-23T08:57:35.161Z,7.75
2022-11-23T09:00:02.685Z,8.35
2022-11-23T09:02:29.561Z,12.68
2022-11-23T09:04:56.413Z,10.88
2022-11-23T09:07:23.278Z,10.68
2022-11-23T09:09:50.215Z,13.80
2022-11-23T09:12:17.117Z,10.20
2022-11-23T09:14:43.990Z,12.45
2022-11-23T09:17:10.784Z,9.63
2022-11-23T09:19:37.737Z,11.32
2022-11-23T09:22:04.578Z,12.15
2022-11-23T09:24:31.991Z,14.07
2022-11-23T09:26:59.509Z,10.80
2022-11-23T09:29:26.956Z,13.18
2022-11-23T09:31:53.806Z,9.25
2022-11-23T09:34:20.865Z,16.48
2022-11-23T09:36:47.979Z,17.63
2022-11-23T09:39:14.928Z,14.25
2022-11-23T09:42:21.720Z,12.30
2022-11-23T09:45:16.465Z,17.63
2022-11-23T09:48:02.234Z,10.80
2022-11-23T09:50:45.223Z,16.80
2022-11-23T09:53:24.043Z,16.20
2022-11-23T09:55:52.875Z,8.60
2022-11-23T09:58:33.311Z,16.38
2022-11-23T10:01:11.374Z,16.15
2022-11-23T10:03:45.412Z,13.38
2022-11-23T10:06:27.976Z,14.82
2022-11-23T10:12:38.551Z,12.88
2022-11-23T10:19:16.640Z,13.00
2022-11-23T10:22:00.070Z,13.73
2022-11-23T10:24:33.488Z,14.43
2022-11-23T10:27:01.237Z,14.23
2022-11-23T10:29:33.710Z,16.73
2022-11-23T10:32:01.161Z,16.17
2022-11-23T10:34:47.408Z,15.18
2022-11-23T10:37:16.884Z,17.00
2022-11-23T10:39:43.776Z,13.23
2022-11-23T10:42:31.346Z,14.38
2022-11-23T10:44:59.800Z,10.15
2022-11-23T10:47:38.105Z,13.80
2022-11-23T10:50:25.842Z,10.90
2022-11-23T10:52:58.125Z,12.57
2022-11-23T10:55:30.976Z,11.50
2022-11-23T10:57:58.842Z,17.92
2022-11-23T11:00:30.842Z,11.18
2022-11-23T11:02:58.975Z,14.68
2022-11-23T11:08:22.410Z,11.27
2022-11-23T11:11:09.188Z,12.48
2022-11-23T11:13:48.101Z,11.35
2022-11-23T11:16:30.373Z,16.13
2022-11-23T11:18:57.426Z,11.18
2022-11-23T11:21:35.335Z,22.20
2022-11-23T11:24:19.805Z,15.25
2022-11-23T11:27:08.301Z,12.98
2022-11-23T11:30:35.597Z,14.70
2022-11-23T11:33:08.786Z,12.00
2022-11-23T11:35:38.992Z,12.95
2022-11-23T11:38:27.926Z,11.77
2022-11-23T11:40:55.664Z,12.13
2022-11-23T11:43:40.252Z,11.88
2022-11-23T11:46:30.136Z,8.93
2022-11-23T11:49:12.378Z,12.38
2022-11-23T11:51:43.460Z,14.02
2022-11-23T11:54:20.779Z,18.92
2022-11-23T11:56:51.041Z,13.55
2022-11-23T11:59:42.681Z,14.02
2022-11-23T12:02:21.498Z,12.30
2022-11-23T12:04:58.023Z,9.77
2022-11-23T12:07:34.462Z,16.08
2022-11-23T12:10:13.185Z,18.60
2022-11-23T12:12:40.186Z,8.25
2022-11-23T12:15:47.361Z,13.10
2022-11-23T12:18:15.304Z,8.32
2022-11-23T12:21:26.526Z,12.35
2022-11-23T12:24:05.646Z,16.25
2022-11-23T12:26:47.348Z,11.93
2022-11-23T12:29:27.418Z,10.25
2022-11-23T12:32:17.373Z,11.50
2022-11-23T12:35:16.232Z,12.25
2022-11-23T12:37:52.148Z,9.07
2022-11-23T12:40:36.728Z,9.60
2022-11-23T12:43:36.639Z,12.68
2022-11-23T12:46:51.749Z,11.27
2022-11-23T12:49:40.558Z,14.18
2022-11-23T12:52:16.933Z,9.38
2022-11-23T12:54:59.062Z,15.35
2022-11-23T12:57:44.416Z,17.52
2022-11-23T13:00:21.759Z,18.30
2022-11-23T13:02:57.411Z,11.38
2022-11-23T13:05:42.779Z,11.55
2022-11-23T13:08:55.655Z,10.27
2022-11-23T13:11:40.781Z,10.98
2022-11-23T13:14:16.486Z,16.48
2022-11-23T13:17:07.922Z,9.13
2022-11-23T13:19:42.248Z,12.35
2022-11-23T13:25:22.269Z,8.80
2022-11-23T13:27:49.066Z,11.48
2022-11-23T13:31:19.323Z,11.50
2022-11-23T13:33:29.359Z,9.07
2022-11-23T13:36:07.112Z,21.63
2022-11-23T13:38:38.315Z,12.27
2022-11-23T13:41:34.257Z,9.20
2022-11-23T13:44:34.185Z,11.13
2022-11-23T13:47:19.756Z,18.77
2022-11-23T13:50:10.215Z,12.88
2022-11-23T13:52:37.258Z,15.85
2022-11-23T13:55:10.727Z,17.23
2022-11-23T13:57:42.531Z,12.60
2022-11-23T14:00:47.149Z,9.02
2022-11-23T14:03:47.866Z,8.32
2022-11-23T14:06:20.742Z,13.10
2022-11-23T14:09:09.053Z,14.38
2022-11-23T14:11:57.332Z,7.47
2022-11-23T14:14:28.121Z,11.57
2022-11-23T14:17:19.375Z,9.70
2022-11-23T14:19:57.987Z,9.60
2022-11-23T14:22:36.949Z,16.75
2022-11-23T14:25:28.538Z,11.85
2022-11-23T14:28:01.025Z,13.63
2022-11-23T14:30:55.415Z,12.07
2022-11-23T14:33:44.791Z,9.20
2022-11-23T14:36:17.858Z,13.80
2022-11-23T14:39:01.345Z,11.05
2022-11-23T14:43:56.121Z,15.95
2022-11-23T14:46:27.700Z,9.80
2022-11-23T14:49:08.964Z,12.48
2022-11-23T14:51:36.126Z,10.95
2022-11-23T14:54:09.337Z,7.75
2022-11-23T14:56:39.068Z,9.65
2022-11-23T14:59:15.808Z,8.15
2022-11-23T15:01:49.022Z,8.02
2022-11-23T15:04:24.832Z,11.50
2022-11-23T15:06:54.815Z,9.52
2022-11-23T15:09:42.323Z,8.13
2022-11-23T15:12:21.587Z,9.70
2022-11-23T15:14:51.235Z,12.50
2022-11-23T15:17:20.797Z,9.40
2022-11-23T15:20:01.202Z,4.35
2022-11-23T15:22:28.872Z,11.75
2022-11-23T15:25:07.087Z,10.15
2022-11-23T15:27:34.059Z,8.20
2022-11-23T15:30:01.053Z,11.45
2022-11-23T15:32:34.350Z,13.50
2022-11-23T15:35:08.245Z,9.35
2022-11-23T15:37:45.715Z,10.88
2022-11-23T15:40:18.134Z,5.18
2022-11-23T15:42:46.972Z,6.72
2022-11-23T15:45:36.129Z,9.85
2022-11-23T15:48:11.646Z,10.80
2022-11-23T15:50:54.461Z,11.77
2022-11-23T15:53:25.181Z,9.50
2022-11-23T15:55:53.040Z,11.68
2022-11-23T15:58:20.967Z,12.75
2022-11-23T16:01:15.696Z,15.95
2022-11-23T16:04:00.896Z,12.23
2022-11-23T16:06:38.781Z,9.10
2022-11-23T16:09:54.301Z,7.95
2022-11-23T16:12:29.816Z,11.98
2022-11-23T16:15:38.122Z,7.78
2022-11-23T16:18:27.765Z,12.30
2022-11-23T16:20:56.905Z,10.02
2022-11-23T16:23:30.926Z,9.50
2022-11-23T16:26:03.319Z,12.65
2022-11-23T16:28:32.158Z,20.90
2022-11-23T16:30:59.337Z,16.30
2022-11-23T16:33:26.608Z,14.55
2022-11-23T16:35:53.900Z,19.17
2022-11-23T16:38:21.058Z,10.85
2022-11-23T16:40:48.316Z,13.30
2022-11-23T16:43:16.619Z,16.38
2022-11-23T16:45:45.820Z,9.57
2022-11-23T16:48:27.641Z,12.18
2022-11-23T16:50:56.438Z,9.00
2022-11-23T16:53:26.028Z,12.18
2022-11-23T16:55:58.911Z,13.20
2022-11-23T16:58:26.672Z,11.73
2022-11-23T17:00:53.703Z,6.72
2022-11-23T17:03:21.516Z,15.57
2022-11-23T17:05:48.611Z,12.85
2022-11-23T17:08:21.629Z,8.65
2022-11-23T17:10:51.158Z,14.02
2022-11-23T17:13:22.909Z,13.77
2022-11-23T17:15:50.847Z,8.95
2022-11-23T17:18:17.841Z,16.58
2022-11-23T17:20:44.935Z,10.75
2022-11-23T17:23:13.483Z,9.05
2022-11-23T17:25:40.952Z,9.95
2022-11-23T17:28:15.245Z,12.20
2022-11-23T17:30:42.776Z,27.40
2022-11-23T17:33:11.741Z,9.27
2022-11-23T17:35:38.864Z,18.42
2022-11-23T17:38:06.598Z,17.52
2022-11-23T17:40:33.668Z,8.55
2022-11-23T17:43:00.564Z,12.55
2022-11-23T17:45:27.562Z,14.02
2022-11-23T17:47:54.467Z,8.27
2022-11-23T17:50:21.265Z,15.15
2022-11-23T17:52:48.599Z,9.90
2022-11-23T17:55:16.176Z,4.85
2022-11-23T17:57:43.199Z,12.75
2022-11-23T18:00:18.785Z,19.63
2022-11-23T18:02:46.161Z,9.98
2022-11-23T18:05:16.540Z,13.02
2022-11-23T18:07:46.564Z,17.50
2022-11-23T18:10:16.382Z,10.30
2022-11-23T18:12:44.728Z,15.00
2022-11-23T18:15:11.972Z,18.70
2022-11-23T18:17:38.911Z,14.60
2022-11-23T18:20:08.312Z,8.25
2022-11-23T18:22:35.615Z,12.05
2022-11-23T18:25:02.457Z,11.57
2022-11-23T18:27:29.986Z,8.07
2022-11-23T18:29:57.223Z,7.40
2022-11-23T18:32:24.272Z,8.48
2022-11-23T18:34:51.223Z,10.45
2022-11-23T18:37:18.182Z,8.27
2022-11-23T18:39:45.008Z,9.77
2022-11-23T18:42:11.836Z,9.70
2022-11-23T18:44:38.922Z,13.65
2022-11-23T18:47:05.919Z,6.45
2022-11-23T18:49:32.948Z,10.65
2022-11-23T18:51:59.990Z,9.50
2022-11-23T18:54:26.840Z,8.90
2022-11-23T18:56:53.730Z,7.38
2022-11-23T18:59:49.885Z,7.78
2022-11-23T19:02:12.991Z,11.55
2022-11-23T19:04:39.875Z,11.15
2022-11-23T19:07:07.301Z,9.00
2022-11-23T19:09:34.826Z,9.02
2022-11-23T19:12:02.027Z,9.55
2022-11-23T19:14:28.885Z,12.07
2022-11-23T19:16:55.710Z,9.35
2022-11-23T19:19:22.547Z,7.40
2022-11-23T19:21:49.352Z,5.32
2022-11-23T19:24:16.210Z,6.40
2022-11-23T19:26:43.343Z,2.72
2022-11-23T19:29:10.361Z,2.13
2022-11-23T19:31:37.256Z,6.38
2022-11-23T19:34:10.837Z,5.03
2022-11-23T19:36:38.021Z,3.47
2022-11-23T19:39:05.743Z,4.43
2022-11-23T19:41:32.936Z,9.15
2022-11-23T19:44:00.636Z,11.05
2022-11-23T19:46:28.406Z,8.20
2022-11-23T19:48:57.299Z,8.52
2022-11-23T19:51:24.828Z,7.00
2022-11-23T19:53:51.899Z,3.40
2022-11-23T19:56:23.934Z,5.90
2022-11-23T19:58:52.457Z,3.38
2022-11-23T20:01:21.038Z,6.47
2022-11-23T20:03:50.902Z,5.97
2022-11-23T20:06:25.088Z,4.93
2022-11-23T20:09:22.621Z,4.13
2022-11-23T20:11:51.401Z,7.68
2022-11-23T20:14:19.256Z,3.38
2022-11-23T20:16:47.635Z,13.65
2022-11-23T20:19:14.472Z,5.88
2022-11-23T20:21:41.314Z,5.40
2022-11-23T20:24:11.846Z,7.20
2022-11-23T20:26:39.169Z,4.40
2022-11-23T20:29:07.211Z,4.78
2022-11-23T20:31:34.426Z,4.00
2022-11-23T20:34:03.293Z,5.13
2022-11-23T20:36:35.395Z,4.70
2022-11-23T20:39:04.730Z,4.80
2022-11-23T20:41:34.485Z,3.25
2022-11-23T20:44:11.568Z,6.45
2022-11-23T20:47:00.722Z,8.88
2022-11-23T20:49:25.692Z,12.13
2022-11-23T20:51:52.598Z,3.58
2022-11-23T20:54:19.535Z,3.78
2022-11-23T20:56:46.356Z,6.05
2022-11-23T20:59:13.392Z,4.32
2022-11-23T21:01:43.244Z,3.40
2022-11-23T21:04:10.195Z,4.28
2022-11-23T21:06:39.850Z,5.53
2022-11-23T21:09:07.920Z,7.35
2022-11-23T21:11:53.265Z,6.45
2022-11-23T21:14:22.046Z,6.78
2022-11-23T21:16:58.505Z,4.55
2022-11-23T21:19:34.076Z,5.47
2022-11-23T21:22:12.751Z,3.78
2022-11-23T21:24:40.147Z,4.88
2022-11-23T21:27:08.556Z,4.50
2022-11-23T21:29:35.435Z,7.05
2022-11-23T21:32:02.270Z,3.03
2022-11-23T21:34:32.761Z,4.88
2022-11-23T21:36:59.989Z,9.15
2022-11-23T21:39:26.964Z,6.10
2022-11-23T21:41:54.823Z,10.15
2022-11-23T21:44:24.887Z,6.03
2022-11-23T21:46:54.932Z,8.10
2022-11-23T21:49:31.271Z,7.65
2022-11-23T21:52:09.012Z,5.75
2022-11-23T21:54:36.065Z,7.10
2022-11-23T21:57:03.109Z,12.10
2022-11-23T21:59:30.011Z,13.38
2022-11-23T22:01:57.236Z,13.80
2022-11-23T22:04:24.321Z,14.45
2022-11-23T22:06:51.219Z,10.88
2022-11-23T22:09:43.583Z,23.38
2022-11-23T22:12:13.179Z,17.25
2022-11-23T22:14:42.977Z,19.05
2022-11-23T22:17:09.843Z,23.30
2022-11-23T22:19:36.658Z,15.60
2022-11-23T22:23:06.968Z,21.58
2022-11-23T22:25:33.881Z,22.42
2022-11-23T22:28:00.756Z,25.10
2022-11-23T22:30:37.665Z,21.02
2022-11-23T22:33:08.699Z,18.33
2022-11-23T22:35:51.562Z,17.40
2022-11-23T22:38:33.263Z,22.30
2022-11-23T22:41:01.450Z,21.00
2022-11-23T22:43:28.961Z,19.50
2022-11-23T22:46:05.387Z,32.60
2022-11-23T22:48:32.795Z,17.75
2022-11-23T22:51:01.794Z,23.35
2022-11-23T22:53:44.497Z,25.48
2022-11-23T22:56:19.838Z,25.20
2022-11-23T22:58:47.932Z,17.30
2022-11-23T23:01:21.712Z,27.98
2022-11-23T23:03:49.182Z,18.83
2022-11-23T23:06:20.886Z,23.58
2022-11-23T23:08:51.889Z,26.65
2022-11-23T23:11:19.158Z,28.83
2022-11-23T23:13:46.064Z,31.25
2022-11-23T23:16:13.759Z,19.85
2022-11-23T23:18:41.526Z,27.55
2022-11-23T23:21:14.714Z,37.58
2022-11-23T23:23:53.165Z,22.60
2022-11-23T23:26:23.026Z,25.88
2022-11-23T23:28:54.318Z,20.00
2022-11-23T23:31:21.502Z,26.88
2022-11-23T23:33:48.569Z,28.70
2022-11-23T23:36:17.482Z,22.30
2022-11-23T23:38:44.496Z,26.17
2022-11-23T23:41:12.644Z,27.15
2022-11-23T23:43:39.772Z,35.67
2022-11-23T23:46:09.125Z,31.48
2022-11-23T23:48:38.150Z,22.27
2022-11-23T23:51:10.208Z,27.08
2022-11-23T23:53:37.508Z,24.20
2022-11-23T23:56:07.722Z,29.88
2022-11-23T23:58:35.414Z,28.17
